(°C)
18°
17°
16°
16°
15°
16°
17°
(°C)
18°
17°
16°
16°
15°
15°
17°
BKB
KB
KKB
KKB
KB
KB
KB
(km/saat)
4-6
4-7
5-9
5-8
5-7
6-8
7-12
(mm)
0
0
0
0
0
0
0
(%)
2
1
1
1
0
0
0

Güneşin açısı

/ -56.6°
sun-icon
UV 4
06:59
17:29
Hilal Şişkin (334°)
04:58
16:12

Orlando (KORL) için METAR

Zaman Koşullar Sıcaklık/
Çiy noktası
Rüzgar Görünürlük Hava Bulutlar Basınç Değiştir Ham
VFR 18.3°C / 13.9°C 320º 6kt >10km - Overcast 5000ft 1021 - KORL 020653Z AUTO 32006KT 10SM OVC050 18/14 A3015 RMK AO2 SLP214 T01830139
VFR 16.7°C / 14.4°C variable 0kt >10km - Clear 1021 - KORL 020553Z AUTO 00000KT 10SM CLR 17/14 A3014 RMK AO2 SLP210 T01670144 10233 20167 56009
VFR 18.3°C / 15°C variable 0kt >10km - Clear 1021 - KORL 020453Z AUTO 00000KT 10SM CLR 18/15 A3015 RMK AO2 SLP212 T01830150 402610117
VFR 18.3°C / 15°C variable 0kt >10km - Clear 1021 - KORL 020353Z AUTO 00000KT 10SM CLR 18/15 A3016 RMK AO2 SLP216 T01830150
VFR 18.3°C / 14.4°C variable 0kt >10km - Clear 1021 - KORL 020253Z AUTO 00000KT 10SM CLR 18/14 A3017 RMK AO2 SLP219 T01830144 50006
VFR 20°C / 14.4°C 150º 3kt >10km - Few Clouds 6000ft 1022 - KORL 020153Z 15003KT 10SM FEW060 20/14 A3017 RMK AO2 SLP222 T02000144
VFR 21.1°C / 13.9°C 90º 4kt >10km - Broken Clouds 5000ft
Broken Clouds 6000ft
1021 - KORL 020053Z 09004KT 10SM BKN050 BKN060 21/14 A3016 RMK AO2 SLP218 T02110139
VFR 24.4°C / 13.3°C 200º 5kt >10km - Clear 1020 - KORL 012153Z 20005KT 10SM CLR 24/13 A3013 RMK AO2 SLP206 T02440133
VFR 25.6°C / 13.3°C 210º 6kt >10km - Clear 1020 - KORL 012053Z AUTO 21006KT 10SM CLR 26/13 A3013 RMK AO2 SLP207 T02560133 56016
VFR 25.6°C / 12.8°C 190º 7kt >10km - Clear 1020 - KORL 011953Z 19007KT 10SM CLR 26/13 A3014 RMK AO2 SLP209 T02560128
VFR 25.6°C / 13.3°C variable 3kt >10km - Few Clouds 5500ft 1021 - KORL 011853Z VRB03KT 10SM FEW055 26/13 A3015 RMK AO2 SLP214 T02560133
VFR 25°C / 13.3°C variable 3kt >10km - Clear 1022 - KORL 011753Z VRB03KT 10SM CLR 25/13 A3018 RMK AO2 SLP222 T02500133 10250 20122 58027
VFR 24.4°C / 13.9°C 220º 4kt >10km - Clear 1023 - KORL 011653Z 22004KT 10SM CLR 24/14 A3021 RMK AO2 SLP232 T02440139
VFR 23.3°C / 13.9°C 10º 3kt >10km - Clear 1024 - KORL 011553Z 01003KT 10SM CLR 23/14 A3024 RMK AO2 SLP244 T02330139
VFR 21.1°C / 13.9°C 30º 5kt >10km - Clear 1025 - KORL 011453Z 03005KT 10SM CLR 21/14 A3026 RMK AO2 SLP250 T02110139 51017
VFR 18.3°C / 12.2°C 340º 4kt >10km - Clear 1024 - KORL 011353Z 34004KT 10SM CLR 18/12 A3024 RMK AO2 SLP245 T01830122
VFR 14.4°C / 11.1°C variable 0kt >10km - Clear 1023 - KORL 011253Z 00000KT 10SM CLR 14/11 A3022 RMK AO2 SLP238 T01440111
VFR 12.8°C / 10°C variable 0kt >10km - Clear 1023 - KORL 011153Z 00000KT 10SM CLR 13/10 A3021 RMK AO2 SLP233 T01280100 10150 20117 53013
VFR 12.2°C / 10°C variable 0kt >10km - Clear 1022 - KORL 011053Z AUTO 00000KT 10SM CLR 12/10 A3019 RMK AO2 SLP227 T01220100
VFR 12.2°C / 10°C variable 0kt >10km - Clear 1022 - KORL 010953Z AUTO 00000KT 10SM CLR 12/10 A3017 RMK AO2 SLP222 T01220100
VFR 12.2°C / 8.9°C variable 0kt >10km - Clear 1022 - KORL 010853Z AUTO 00000KT 10SM CLR 12/09 A3017 RMK AO2 SLP220 T01220089 56006
VFR 13.9°C / 10°C 10º 3kt >10km - Clear 1022 - KORL 010753Z AUTO 01003KT 10SM CLR 14/10 A3017 RMK AO2 SLP221 T01390100
VFR 14.4°C / 10.6°C 20º 5kt >10km - Clear 1022 - KORL 010653Z AUTO 02005KT 10SM CLR 14/11 A3018 RMK AO2 SLP222 T01440106
VFR 15°C / 10.6°C 360º 5kt >10km - Clear 1022 - KORL 010553Z AUTO 36005KT 10SM CLR 15/11 A3019 RMK AO2 SLP226 T01500106 10178 20144 58009

VFR

18.3°C / 13.9°C

[Daha fazla]
Rüzgar 320º 6kt
Görünürlük >10km
Hava -
Bulutlar Overcast 5000ft
Basınç 1021
Değiştir -
Ham KORL 020653Z AUTO 32006KT 10SM OVC050 18/14 A3015 RMK AO2 SLP214 T01830139

VFR

16.7°C / 14.4°C

[Daha fazla]
Rüzgar variable 0kt
Görünürlük >10km
Hava -
Bulutlar Clear
Basınç 1021
Değiştir -
Ham KORL 020553Z AUTO 00000KT 10SM CLR 17/14 A3014 RMK AO2 SLP210 T01670144 10233 20167 56009

VFR

18.3°C / 15°C

[Daha fazla]
Rüzgar variable 0kt
Görünürlük >10km
Hava -
Bulutlar Clear
Basınç 1021
Değiştir -
Ham KORL 020453Z AUTO 00000KT 10SM CLR 18/15 A3015 RMK AO2 SLP212 T01830150 402610117

VFR

18.3°C / 15°C

[Daha fazla]
Rüzgar variable 0kt
Görünürlük >10km
Hava -
Bulutlar Clear
Basınç 1021
Değiştir -
Ham KORL 020353Z AUTO 00000KT 10SM CLR 18/15 A3016 RMK AO2 SLP216 T01830150

VFR

18.3°C / 14.4°C

[Daha fazla]
Rüzgar variable 0kt
Görünürlük >10km
Hava -
Bulutlar Clear
Basınç 1021
Değiştir -
Ham KORL 020253Z AUTO 00000KT 10SM CLR 18/14 A3017 RMK AO2 SLP219 T01830144 50006

VFR

20°C / 14.4°C

[Daha fazla]
Rüzgar 150º 3kt
Görünürlük >10km
Hava -
Bulutlar Few Clouds 6000ft
Basınç 1022
Değiştir -
Ham KORL 020153Z 15003KT 10SM FEW060 20/14 A3017 RMK AO2 SLP222 T02000144

VFR

21.1°C / 13.9°C

[Daha fazla]
Rüzgar 90º 4kt
Görünürlük >10km
Hava -
Bulutlar Broken Clouds 5000ft
Broken Clouds 6000ft
Basınç 1021
Değiştir -
Ham KORL 020053Z 09004KT 10SM BKN050 BKN060 21/14 A3016 RMK AO2 SLP218 T02110139

VFR

24.4°C / 13.3°C

[Daha fazla]
Rüzgar 200º 5kt
Görünürlük >10km
Hava -
Bulutlar Clear
Basınç 1020
Değiştir -
Ham KORL 012153Z 20005KT 10SM CLR 24/13 A3013 RMK AO2 SLP206 T02440133

VFR

25.6°C / 13.3°C

[Daha fazla]
Rüzgar 210º 6kt
Görünürlük >10km
Hava -
Bulutlar Clear
Basınç 1020
Değiştir -
Ham KORL 012053Z AUTO 21006KT 10SM CLR 26/13 A3013 RMK AO2 SLP207 T02560133 56016

VFR

25.6°C / 12.8°C

[Daha fazla]
Rüzgar 190º 7kt
Görünürlük >10km
Hava -
Bulutlar Clear
Basınç 1020
Değiştir -
Ham KORL 011953Z 19007KT 10SM CLR 26/13 A3014 RMK AO2 SLP209 T02560128

VFR

25.6°C / 13.3°C

[Daha fazla]
Rüzgar variable 3kt
Görünürlük >10km
Hava -
Bulutlar Few Clouds 5500ft
Basınç 1021
Değiştir -
Ham KORL 011853Z VRB03KT 10SM FEW055 26/13 A3015 RMK AO2 SLP214 T02560133

VFR

25°C / 13.3°C

[Daha fazla]
Rüzgar variable 3kt
Görünürlük >10km
Hava -
Bulutlar Clear
Basınç 1022
Değiştir -
Ham KORL 011753Z VRB03KT 10SM CLR 25/13 A3018 RMK AO2 SLP222 T02500133 10250 20122 58027

VFR

24.4°C / 13.9°C

[Daha fazla]
Rüzgar 220º 4kt
Görünürlük >10km
Hava -
Bulutlar Clear
Basınç 1023
Değiştir -
Ham KORL 011653Z 22004KT 10SM CLR 24/14 A3021 RMK AO2 SLP232 T02440139

VFR

23.3°C / 13.9°C

[Daha fazla]
Rüzgar 10º 3kt
Görünürlük >10km
Hava -
Bulutlar Clear
Basınç 1024
Değiştir -
Ham KORL 011553Z 01003KT 10SM CLR 23/14 A3024 RMK AO2 SLP244 T02330139

VFR

21.1°C / 13.9°C

[Daha fazla]
Rüzgar 30º 5kt
Görünürlük >10km
Hava -
Bulutlar Clear
Basınç 1025
Değiştir -
Ham KORL 011453Z 03005KT 10SM CLR 21/14 A3026 RMK AO2 SLP250 T02110139 51017

VFR

18.3°C / 12.2°C

[Daha fazla]
Rüzgar 340º 4kt
Görünürlük >10km
Hava -
Bulutlar Clear
Basınç 1024
Değiştir -
Ham KORL 011353Z 34004KT 10SM CLR 18/12 A3024 RMK AO2 SLP245 T01830122

VFR

14.4°C / 11.1°C

[Daha fazla]
Rüzgar variable 0kt
Görünürlük >10km
Hava -
Bulutlar Clear
Basınç 1023
Değiştir -
Ham KORL 011253Z 00000KT 10SM CLR 14/11 A3022 RMK AO2 SLP238 T01440111

VFR

12.8°C / 10°C

[Daha fazla]
Rüzgar variable 0kt
Görünürlük >10km
Hava -
Bulutlar Clear
Basınç 1023
Değiştir -
Ham KORL 011153Z 00000KT 10SM CLR 13/10 A3021 RMK AO2 SLP233 T01280100 10150 20117 53013

VFR

12.2°C / 10°C

[Daha fazla]
Rüzgar variable 0kt
Görünürlük >10km
Hava -
Bulutlar Clear
Basınç 1022
Değiştir -
Ham KORL 011053Z AUTO 00000KT 10SM CLR 12/10 A3019 RMK AO2 SLP227 T01220100

VFR

12.2°C / 10°C

[Daha fazla]
Rüzgar variable 0kt
Görünürlük >10km
Hava -
Bulutlar Clear
Basınç 1022
Değiştir -
Ham KORL 010953Z AUTO 00000KT 10SM CLR 12/10 A3017 RMK AO2 SLP222 T01220100

VFR

12.2°C / 8.9°C

[Daha fazla]
Rüzgar variable 0kt
Görünürlük >10km
Hava -
Bulutlar Clear
Basınç 1022
Değiştir -
Ham KORL 010853Z AUTO 00000KT 10SM CLR 12/09 A3017 RMK AO2 SLP220 T01220089 56006

VFR

13.9°C / 10°C

[Daha fazla]
Rüzgar 10º 3kt
Görünürlük >10km
Hava -
Bulutlar Clear
Basınç 1022
Değiştir -
Ham KORL 010753Z AUTO 01003KT 10SM CLR 14/10 A3017 RMK AO2 SLP221 T01390100

VFR

14.4°C / 10.6°C

[Daha fazla]
Rüzgar 20º 5kt
Görünürlük >10km
Hava -
Bulutlar Clear
Basınç 1022
Değiştir -
Ham KORL 010653Z AUTO 02005KT 10SM CLR 14/11 A3018 RMK AO2 SLP222 T01440106

VFR

15°C / 10.6°C

[Daha fazla]
Rüzgar 360º 5kt
Görünürlük >10km
Hava -
Bulutlar Clear
Basınç 1022
Değiştir -
Ham KORL 010553Z AUTO 36005KT 10SM CLR 15/11 A3019 RMK AO2 SLP226 T01500106 10178 20144 58009

Orlando için şu anki uydu görüntüleri, Amerika Birleşik Devletleri

Konum işaretleyici Orlando üzerine yerleştirilir. [Daha fazla]

Gerçek zamanlı uydu görüntüsü gündüz süresince görülür ışığı gece süresince kızılötesi ışınım ile birleştirir. Gece kızılötesi ışınım sıcaklık farklarını algılayabildiğinden dolayı görüntü karanlık değildir. Ancak düşük bulutları ve sisi yer sıcaklığından ayırmak zordur ve bu nedenle gece boyunca neredeyse görünmez olabilirler. Avrupa için Meteosat uydu görüntüleri gerçek zamanlı olarak her 5 dakikada bir güncellenir. GOES-16/GOES-17 (Kuzey ve Güney Amerika) ve Himawari (Asya) görüntüleri her 10 dakikada bir güncellenir.

Orlando için radar ve yağış nowcast

Çise
Hafif
Orta
Ağır
Çok ağır
Selamlamak

Konum işaretleyicisi Orlando üzerine yerleştirilir. Bu animasyon son saat içerisindeki yağış radarını ve 1h tahminini gösterir. Hafif yağmur veya kar yağışı radar için görünmez olabilir. Yağış şiddeti açık mavi ile koyu mor arasındaki renklerle kodlanmıştır.